sensor_id;sensor_type;location;lat;lon;timestamp;P1;durP1;ratioP1;P2;durP2;ratioP2
55455;SDS011;63021;52.836;6.376;2023-04-15T00:00:23;9.73;;;4.07;;
55455;SDS011;63021;52.836;6.376;2023-04-15T00:02:50;7.93;;;3.55;;
55455;SDS011;63021;52.836;6.376;2023-04-15T00:05:17;4.45;;;3.70;;
55455;SDS011;63021;52.836;6.376;2023-04-15T00:07:42;5.60;;;3.95;;
55455;SDS011;63021;52.836;6.376;2023-04-15T00:10:09;7.82;;;3.65;;
55455;SDS011;63021;52.836;6.376;2023-04-15T00:12:35;8.88;;;3.33;;
55455;SDS011;63021;52.836;6.376;2023-04-15T00:15:01;8.05;;;3.58;;
55455;SDS011;63021;52.836;6.376;2023-04-15T00:17:28;6.38;;;4.20;;
55455;SDS011;63021;52.836;6.376;2023-04-15T00:19:53;7.15;;;3.80;;
55455;SDS011;63021;52.836;6.376;2023-04-15T00:22:19;6.03;;;3.90;;
55455;SDS011;63021;52.836;6.376;2023-04-15T00:24:45;7.50;;;3.60;;
55455;SDS011;63021;52.836;6.376;2023-04-15T00:27:13;6.10;;;3.55;;
55455;SDS011;63021;52.836;6.376;2023-04-15T00:29:39;9.88;;;4.40;;
55455;SDS011;63021;52.836;6.376;2023-04-15T00:32:05;4.45;;;3.80;;
55455;SDS011;63021;52.836;6.376;2023-04-15T00:34:37;6.82;;;3.70;;
55455;SDS011;63021;52.836;6.376;2023-04-15T00:37:02;7.93;;;3.85;;
55455;SDS011;63021;52.836;6.376;2023-04-15T00:39:28;7.78;;;4.10;;
55455;SDS011;63021;52.836;6.376;2023-04-15T00:41:53;7.07;;;3.80;;
55455;SDS011;63021;52.836;6.376;2023-04-15T00:44:22;5.63;;;4.22;;
55455;SDS011;63021;52.836;6.376;2023-04-15T00:46:49;5.22;;;3.53;;
55455;SDS011;63021;52.836;6.376;2023-04-15T00:49:15;7.00;;;3.78;;
55455;SDS011;63021;52.836;6.376;2023-04-15T00:51:42;4.25;;;3.83;;
55455;SDS011;63021;52.836;6.376;2023-04-15T00:54:08;8.00;;;3.65;;
55455;SDS011;63021;52.836;6.376;2023-04-15T00:56:35;6.40;;;3.85;;
55455;SDS011;63021;52.836;6.376;2023-04-15T00:59:05;8.23;;;4.63;;
55455;SDS011;63021;52.836;6.376;2023-04-15T01:01:32;6.55;;;3.97;;
55455;SDS011;63021;52.836;6.376;2023-04-15T01:03:59;9.02;;;3.92;;
55455;SDS011;63021;52.836;6.376;2023-04-15T01:06:27;11.38;;;4.15;;
55455;SDS011;63021;52.836;6.376;2023-04-15T01:08:54;9.98;;;4.80;;
55455;SDS011;63021;52.836;6.376;2023-04-15T01:11:22;9.18;;;4.85;;
55455;SDS011;63021;52.836;6.376;2023-04-15T01:13:52;10.82;;;4.60;;
55455;SDS011;63021;52.836;6.376;2023-04-15T01:16:20;11.13;;;4.18;;
55455;SDS011;63021;52.836;6.376;2023-04-15T01:18:54;6.80;;;4.60;;
55455;SDS011;63021;52.836;6.376;2023-04-15T01:21:20;7.25;;;4.45;;
55455;SDS011;63021;52.836;6.376;2023-04-15T01:23:46;11.57;;;4.78;;
55455;SDS011;63021;52.836;6.376;2023-04-15T01:26:13;9.60;;;4.90;;
55455;SDS011;63021;52.836;6.376;2023-04-15T01:28:40;10.90;;;4.20;;
55455;SDS011;63021;52.836;6.376;2023-04-15T01:33:36;10.65;;;4.40;;
55455;SDS011;63021;52.836;6.376;2023-04-15T01:36:05;9.07;;;6.05;;
55455;SDS011;63021;52.836;6.376;2023-04-15T01:38:32;10.30;;;5.35;;
55455;SDS011;63021;52.836;6.376;2023-04-15T01:40:58;8.25;;;4.75;;
55455;SDS011;63021;52.836;6.376;2023-04-15T01:43:24;6.60;;;4.57;;
55455;SDS011;63021;52.836;6.376;2023-04-15T01:45:50;9.68;;;5.53;;
55455;SDS011;63021;52.836;6.376;2023-04-15T01:48:15;9.93;;;4.80;;
55455;SDS011;63021;52.836;6.376;2023-04-15T01:50:41;13.50;;;5.53;;
55455;SDS011;63021;52.836;6.376;2023-04-15T01:53:07;9.38;;;5.07;;
55455;SDS011;63021;52.836;6.376;2023-04-15T01:55:33;11.30;;;6.10;;
55455;SDS011;63021;52.836;6.376;2023-04-15T01:57:59;14.50;;;5.38;;
55455;SDS011;63021;52.836;6.376;2023-04-15T02:00:25;13.45;;;5.80;;
55455;SDS011;63021;52.836;6.376;2023-04-15T02:02:51;10.07;;;6.30;;
55455;SDS011;63021;52.836;6.376;2023-04-15T02:05:17;13.07;;;5.80;;
55455;SDS011;63021;52.836;6.376;2023-04-15T02:07:42;6.05;;;5.07;;
55455;SDS011;63021;52.836;6.376;2023-04-15T02:10:08;13.88;;;5.53;;
55455;SDS011;63021;52.836;6.376;2023-04-15T02:12:34;7.95;;;4.97;;
55455;SDS011;63021;52.836;6.376;2023-04-15T02:15:00;7.68;;;4.97;;
55455;SDS011;63021;52.836;6.376;2023-04-15T02:17:26;12.43;;;5.78;;
55455;SDS011;63021;52.836;6.376;2023-04-15T02:19:51;12.98;;;5.72;;
55455;SDS011;63021;52.836;6.376;2023-04-15T02:22:16;8.40;;;5.53;;
55455;SDS011;63021;52.836;6.376;2023-04-15T02:24:48;7.22;;;5.30;;
55455;SDS011;63021;52.836;6.376;2023-04-15T02:27:14;9.40;;;6.38;;
55455;SDS011;63021;52.836;6.376;2023-04-15T02:29:41;10.73;;;6.55;;
55455;SDS011;63021;52.836;6.376;2023-04-15T02:32:11;13.02;;;6.72;;
55455;SDS011;63021;52.836;6.376;2023-04-15T02:34:38;9.18;;;5.88;;
55455;SDS011;63021;52.836;6.376;2023-04-15T02:37:07;7.60;;;4.90;;
55455;SDS011;63021;52.836;6.376;2023-04-15T02:39:33;10.38;;;6.20;;
55455;SDS011;63021;52.836;6.376;2023-04-15T02:41:58;10.05;;;6.05;;
55455;SDS011;63021;52.836;6.376;2023-04-15T02:44:25;14.40;;;5.72;;
55455;SDS011;63021;52.836;6.376;2023-04-15T02:46:51;10.85;;;6.07;;
55455;SDS011;63021;52.836;6.376;2023-04-15T02:49:21;11.20;;;6.22;;
55455;SDS011;63021;52.836;6.376;2023-04-15T02:51:48;8.68;;;5.75;;
55455;SDS011;63021;52.836;6.376;2023-04-15T02:54:20;6.97;;;5.50;;
55455;SDS011;63021;52.836;6.376;2023-04-15T02:56:47;13.00;;;6.72;;
55455;SDS011;63021;52.836;6.376;2023-04-15T02:59:13;11.63;;;6.20;;
55455;SDS011;63021;52.836;6.376;2023-04-15T03:01:39;11.68;;;6.18;;
55455;SDS011;63021;52.836;6.376;2023-04-15T03:04:05;10.75;;;7.10;;
55455;SDS011;63021;52.836;6.376;2023-04-15T03:06:32;10.27;;;6.28;;
55455;SDS011;63021;52.836;6.376;2023-04-15T03:08:58;10.93;;;6.78;;
55455;SDS011;63021;52.836;6.376;2023-04-15T03:11:24;14.05;;;6.90;;
55455;SDS011;63021;52.836;6.376;2023-04-15T03:13:51;13.00;;;7.30;;
55455;SDS011;63021;52.836;6.376;2023-04-15T03:16:17;15.05;;;7.82;;
55455;SDS011;63021;52.836;6.376;2023-04-15T03:18:42;11.20;;;6.93;;
55455;SDS011;63021;52.836;6.376;2023-04-15T03:21:08;11.32;;;7.18;;
55455;SDS011;63021;52.836;6.376;2023-04-15T03:23:33;10.57;;;6.90;;
55455;SDS011;63021;52.836;6.376;2023-04-15T03:26:02;16.67;;;7.60;;
55455;SDS011;63021;52.836;6.376;2023-04-15T03:28:29;13.77;;;7.30;;
55455;SDS011;63021;52.836;6.376;2023-04-15T03:30:55;12.25;;;7.72;;
55455;SDS011;63021;52.836;6.376;2023-04-15T03:33:21;16.40;;;8.82;;
55455;SDS011;63021;52.836;6.376;2023-04-15T03:35:47;12.07;;;8.20;;
55455;SDS011;63021;52.836;6.376;2023-04-15T03:38:12;11.63;;;7.93;;
55455;SDS011;63021;52.836;6.376;2023-04-15T03:40:39;13.73;;;8.32;;
55455;SDS011;63021;52.836;6.376;2023-04-15T03:43:05;13.00;;;7.72;;
55455;SDS011;63021;52.836;6.376;2023-04-15T03:45:33;15.05;;;8.77;;
55455;SDS011;63021;52.836;6.376;2023-04-15T03:48:01;11.18;;;8.30;;
55455;SDS011;63021;52.836;6.376;2023-04-15T03:50:27;11.23;;;8.52;;
55455;SDS011;63021;52.836;6.376;2023-04-15T03:52:55;15.75;;;9.55;;
55455;SDS011;63021;52.836;6.376;2023-04-15T03:55:20;11.90;;;8.48;;
55455;SDS011;63021;52.836;6.376;2023-04-15T03:57:46;13.02;;;8.43;;
55455;SDS011;63021;52.836;6.376;2023-04-15T04:00:11;16.17;;;9.30;;
55455;SDS011;63021;52.836;6.376;2023-04-15T04:02:37;13.85;;;8.63;;
55455;SDS011;63021;52.836;6.376;2023-04-15T04:05:03;13.40;;;7.97;;
55455;SDS011;63021;52.836;6.376;2023-04-15T04:07:29;17.33;;;9.38;;
55455;SDS011;63021;52.836;6.376;2023-04-15T04:09:58;15.45;;;9.38;;
55455;SDS011;63021;52.836;6.376;2023-04-15T04:12:23;12.80;;;9.18;;
55455;SDS011;63021;52.836;6.376;2023-04-15T04:14:49;12.38;;;8.38;;
55455;SDS011;63021;52.836;6.376;2023-04-15T04:17:14;14.93;;;9.65;;
55455;SDS011;63021;52.836;6.376;2023-04-15T04:19:40;21.63;;;9.68;;
55455;SDS011;63021;52.836;6.376;2023-04-15T04:22:05;19.98;;;9.68;;
55455;SDS011;63021;52.836;6.376;2023-04-15T04:24:30;16.85;;;7.95;;
55455;SDS011;63021;52.836;6.376;2023-04-15T04:26:56;14.88;;;8.77;;
55455;SDS011;63021;52.836;6.376;2023-04-15T04:29:24;15.20;;;9.35;;
55455;SDS011;63021;52.836;6.376;2023-04-15T04:31:51;13.88;;;9.13;;
55455;SDS011;63021;52.836;6.376;2023-04-15T04:34:16;14.02;;;8.77;;
55455;SDS011;63021;52.836;6.376;2023-04-15T04:36:42;12.10;;;8.30;;
55455;SDS011;63021;52.836;6.376;2023-04-15T04:39:10;12.45;;;8.90;;
55455;SDS011;63021;52.836;6.376;2023-04-15T04:41:39;12.95;;;9.70;;
55455;SDS011;63021;52.836;6.376;2023-04-15T04:44:05;12.27;;;8.10;;
55455;SDS011;63021;52.836;6.376;2023-04-15T04:46:30;14.50;;;9.18;;
55455;SDS011;63021;52.836;6.376;2023-04-15T04:48:58;12.07;;;8.93;;
55455;SDS011;63021;52.836;6.376;2023-04-15T04:51:23;12.38;;;8.02;;
55455;SDS011;63021;52.836;6.376;2023-04-15T04:53:50;14.23;;;9.15;;
55455;SDS011;63021;52.836;6.376;2023-04-15T04:56:15;12.95;;;8.65;;
55455;SDS011;63021;52.836;6.376;2023-04-15T04:58:41;10.73;;;8.30;;
55455;SDS011;63021;52.836;6.376;2023-04-15T05:01:06;15.80;;;9.45;;
55455;SDS011;63021;52.836;6.376;2023-04-15T05:03:34;12.40;;;8.73;;
55455;SDS011;63021;52.836;6.376;2023-04-15T05:06:00;12.73;;;9.07;;
55455;SDS011;63021;52.836;6.376;2023-04-15T05:08:30;12.98;;;9.13;;
55455;SDS011;63021;52.836;6.376;2023-04-15T05:11:01;13.70;;;8.05;;
55455;SDS011;63021;52.836;6.376;2023-04-15T05:13:27;14.45;;;8.77;;
55455;SDS011;63021;52.836;6.376;2023-04-15T05:15:54;12.70;;;9.90;;
55455;SDS011;63021;52.836;6.376;2023-04-15T05:18:20;16.33;;;9.23;;
55455;SDS011;63021;52.836;6.376;2023-04-15T05:20:46;11.63;;;8.13;;
55455;SDS011;63021;52.836;6.376;2023-04-15T05:23:13;12.80;;;8.90;;
55455;SDS011;63021;52.836;6.376;2023-04-15T05:25:39;13.18;;;8.77;;
55455;SDS011;63021;52.836;6.376;2023-04-15T05:28:05;14.38;;;9.90;;
55455;SDS011;63021;52.836;6.376;2023-04-15T05:30:31;16.35;;;9.55;;
55455;SDS011;63021;52.836;6.376;2023-04-15T05:32:56;12.38;;;9.32;;
55455;SDS011;63021;52.836;6.376;2023-04-15T05:35:21;14.35;;;9.63;;
55455;SDS011;63021;52.836;6.376;2023-04-15T05:37:47;13.32;;;8.55;;
55455;SDS011;63021;52.836;6.376;2023-04-15T05:40:12;12.85;;;9.55;;
55455;SDS011;63021;52.836;6.376;2023-04-15T05:42:39;11.55;;;9.20;;
55455;SDS011;63021;52.836;6.376;2023-04-15T05:45:05;11.77;;;8.73;;
55455;SDS011;63021;52.836;6.376;2023-04-15T05:47:33;15.55;;;9.25;;
55455;SDS011;63021;52.836;6.376;2023-04-15T05:49:59;16.50;;;10.70;;
55455;SDS011;63021;52.836;6.376;2023-04-15T05:52:25;14.35;;;10.27;;
55455;SDS011;63021;52.836;6.376;2023-04-15T05:54:51;14.10;;;9.65;;
55455;SDS011;63021;52.836;6.376;2023-04-15T05:57:16;15.60;;;10.10;;
55455;SDS011;63021;52.836;6.376;2023-04-15T05:59:42;13.98;;;9.90;;
55455;SDS011;63021;52.836;6.376;2023-04-15T06:02:08;16.70;;;11.15;;
55455;SDS011;63021;52.836;6.376;2023-04-15T06:04:34;22.02;;;11.75;;
55455;SDS011;63021;52.836;6.376;2023-04-15T06:07:00;13.85;;;10.25;;
55455;SDS011;63021;52.836;6.376;2023-04-15T06:09:26;14.70;;;11.05;;
55455;SDS011;63021;52.836;6.376;2023-04-15T06:11:53;16.48;;;11.10;;
55455;SDS011;63021;52.836;6.376;2023-04-15T06:14:22;15.07;;;11.50;;
55455;SDS011;63021;52.836;6.376;2023-04-15T06:16:54;16.85;;;11.45;;
55455;SDS011;63021;52.836;6.376;2023-04-15T06:19:43;15.32;;;11.50;;
55455;SDS011;63021;52.836;6.376;2023-04-15T06:22:12;21.73;;;11.95;;
55455;SDS011;63021;52.836;6.376;2023-04-15T06:24:38;15.15;;;11.13;;
55455;SDS011;63021;52.836;6.376;2023-04-15T06:27:06;15.93;;;11.45;;
55455;SDS011;63021;52.836;6.376;2023-04-15T06:29:37;16.98;;;11.65;;
55455;SDS011;63021;52.836;6.376;2023-04-15T06:32:06;15.13;;;10.90;;
55455;SDS011;63021;52.836;6.376;2023-04-15T06:34:36;17.90;;;12.18;;
55455;SDS011;63021;52.836;6.376;2023-04-15T06:37:05;15.60;;;11.38;;
55455;SDS011;63021;52.836;6.376;2023-04-15T06:39:41;17.55;;;12.77;;
55455;SDS011;63021;52.836;6.376;2023-04-15T06:42:07;19.42;;;12.20;;
55455;SDS011;63021;52.836;6.376;2023-04-15T06:44:35;17.02;;;12.25;;
55455;SDS011;63021;52.836;6.376;2023-04-15T06:47:01;16.73;;;11.50;;
55455;SDS011;63021;52.836;6.376;2023-04-15T06:49:27;18.90;;;11.43;;
55455;SDS011;63021;52.836;6.376;2023-04-15T06:51:52;21.83;;;12.43;;
55455;SDS011;63021;52.836;6.376;2023-04-15T06:54:21;18.60;;;12.95;;
55455;SDS011;63021;52.836;6.376;2023-04-15T06:56:47;19.85;;;11.90;;
55455;SDS011;63021;52.836;6.376;2023-04-15T06:59:16;19.63;;;12.65;;
55455;SDS011;63021;52.836;6.376;2023-04-15T07:01:44;20.00;;;11.88;;
55455;SDS011;63021;52.836;6.376;2023-04-15T07:04:13;14.27;;;10.40;;
55455;SDS011;63021;52.836;6.376;2023-04-15T07:06:41;18.42;;;12.07;;
55455;SDS011;63021;52.836;6.376;2023-04-15T07:09:15;14.38;;;10.93;;
55455;SDS011;63021;52.836;6.376;2023-04-15T07:11:40;18.02;;;11.18;;
55455;SDS011;63021;52.836;6.376;2023-04-15T07:14:14;15.27;;;10.55;;
55455;SDS011;63021;52.836;6.376;2023-04-15T07:16:45;15.68;;;10.73;;
55455;SDS011;63021;52.836;6.376;2023-04-15T07:19:11;18.30;;;11.40;;
55455;SDS011;63021;52.836;6.376;2023-04-15T07:21:57;14.57;;;10.93;;
55455;SDS011;63021;52.836;6.376;2023-04-15T07:24:28;18.15;;;11.82;;
55455;SDS011;63021;52.836;6.376;2023-04-15T07:26:54;14.60;;;10.93;;
55455;SDS011;63021;52.836;6.376;2023-04-15T07:29:23;15.13;;;11.52;;
55455;SDS011;63021;52.836;6.376;2023-04-15T07:31:50;17.30;;;10.63;;
55455;SDS011;63021;52.836;6.376;2023-04-15T07:34:19;13.60;;;10.00;;
55455;SDS011;63021;52.836;6.376;2023-04-15T07:36:45;17.10;;;11.20;;
55455;SDS011;63021;52.836;6.376;2023-04-15T07:39:27;14.25;;;9.52;;
55455;SDS011;63021;52.836;6.376;2023-04-15T07:42:16;13.70;;;9.98;;
55455;SDS011;63021;52.836;6.376;2023-04-15T07:44:57;12.35;;;8.57;;
55455;SDS011;63021;52.836;6.376;2023-04-15T07:47:25;22.55;;;9.38;;
55455;SDS011;63021;52.836;6.376;2023-04-15T07:49:54;12.32;;;9.43;;
55455;SDS011;63021;52.836;6.376;2023-04-15T07:52:21;15.30;;;10.32;;
55455;SDS011;63021;52.836;6.376;2023-04-15T07:54:55;14.85;;;10.27;;
55455;SDS011;63021;52.836;6.376;2023-04-15T07:57:27;15.68;;;9.88;;
55455;SDS011;63021;52.836;6.376;2023-04-15T07:59:59;13.60;;;8.95;;
55455;SDS011;63021;52.836;6.376;2023-04-15T08:02:32;13.37;;;9.23;;
55455;SDS011;63021;52.836;6.376;2023-04-15T08:05:00;15.00;;;9.10;;
55455;SDS011;63021;52.836;6.376;2023-04-15T08:07:31;11.18;;;8.57;;
55455;SDS011;63021;52.836;6.376;2023-04-15T08:10:04;13.73;;;8.20;;
55455;SDS011;63021;52.836;6.376;2023-04-15T08:12:38;14.00;;;8.00;;
55455;SDS011;63021;52.836;6.376;2023-04-15T08:15:04;12.68;;;7.88;;
55455;SDS011;63021;52.836;6.376;2023-04-15T08:17:51;12.43;;;7.72;;
55455;SDS011;63021;52.836;6.376;2023-04-15T08:23:08;12.32;;;7.97;;
55455;SDS011;63021;52.836;6.376;2023-04-15T08:25:36;10.45;;;7.57;;
55455;SDS011;63021;52.836;6.376;2023-04-15T08:31:09;17.40;;;7.72;;
55455;SDS011;63021;52.836;6.376;2023-04-15T08:33:42;12.13;;;7.38;;
55455;SDS011;63021;52.836;6.376;2023-04-15T08:36:10;10.02;;;7.15;;
55455;SDS011;63021;52.836;6.376;2023-04-15T08:38:40;10.27;;;6.97;;
55455;SDS011;63021;52.836;6.376;2023-04-15T08:41:31;12.02;;;6.88;;
55455;SDS011;63021;52.836;6.376;2023-04-15T08:43:56;10.68;;;6.65;;
55455;SDS011;63021;52.836;6.376;2023-04-15T08:49:10;12.77;;;5.70;;
55455;SDS011;63021;52.836;6.376;2023-04-15T08:51:39;9.27;;;5.68;;
55455;SDS011;63021;52.836;6.376;2023-04-15T08:54:08;8.48;;;5.13;;
55455;SDS011;63021;52.836;6.376;2023-04-15T08:56:37;7.55;;;4.93;;
55455;SDS011;63021;52.836;6.376;2023-04-15T08:59:03;7.50;;;4.57;;
55455;SDS011;63021;52.836;6.376;2023-04-15T09:01:31;6.32;;;4.20;;
55455;SDS011;63021;52.836;6.376;2023-04-15T09:04:01;8.20;;;5.00;;
55455;SDS011;63021;52.836;6.376;2023-04-15T09:06:30;7.30;;;4.88;;
55455;SDS011;63021;52.836;6.376;2023-04-15T09:08:59;5.05;;;4.43;;
55455;SDS011;63021;52.836;6.376;2023-04-15T09:11:25;5.03;;;4.53;;
55455;SDS011;63021;52.836;6.376;2023-04-15T09:13:58;7.47;;;3.85;;
55455;SDS011;63021;52.836;6.376;2023-04-15T09:16:26;7.32;;;4.25;;
55455;SDS011;63021;52.836;6.376;2023-04-15T09:18:55;7.95;;;4.35;;
55455;SDS011;63021;52.836;6.376;2023-04-15T09:21:27;7.38;;;4.32;;
55455;SDS011;63021;52.836;6.376;2023-04-15T09:24:00;7.43;;;3.75;;
55455;SDS011;63021;52.836;6.376;2023-04-15T09:26:36;5.45;;;3.40;;
55455;SDS011;63021;52.836;6.376;2023-04-15T09:29:17;8.48;;;4.10;;
55455;SDS011;63021;52.836;6.376;2023-04-15T09:31:57;4.97;;;4.53;;
55455;SDS011;63021;52.836;6.376;2023-04-15T09:34:34;9.27;;;3.35;;
55455;SDS011;63021;52.836;6.376;2023-04-15T09:40:11;6.65;;;3.05;;
55455;SDS011;63021;52.836;6.376;2023-04-15T09:43:05;7.70;;;2.70;;
55455;SDS011;63021;52.836;6.376;2023-04-15T09:45:36;4.35;;;2.42;;
55455;SDS011;63021;52.836;6.376;2023-04-15T09:48:22;3.67;;;2.40;;
55455;SDS011;63021;52.836;6.376;2023-04-15T09:51:01;6.72;;;3.80;;
55455;SDS011;63021;52.836;6.376;2023-04-15T09:53:31;4.88;;;2.70;;
55455;SDS011;63021;52.836;6.376;2023-04-15T09:56:05;5.55;;;2.80;;
55455;SDS011;63021;52.836;6.376;2023-04-15T09:58:36;6.03;;;2.47;;
55455;SDS011;63021;52.836;6.376;2023-04-15T10:01:27;7.88;;;2.78;;
55455;SDS011;63021;52.836;6.376;2023-04-15T10:03:56;6.20;;;2.30;;
55455;SDS011;63021;52.836;6.376;2023-04-15T10:06:31;7.53;;;4.32;;
55455;SDS011;63021;52.836;6.376;2023-04-15T10:08:58;4.30;;;2.72;;
55455;SDS011;63021;52.836;6.376;2023-04-15T10:11:31;22.15;;;4.07;;
55455;SDS011;63021;52.836;6.376;2023-04-15T10:14:01;6.53;;;3.20;;
55455;SDS011;63021;52.836;6.376;2023-04-15T10:16:31;16.95;;;9.23;;
55455;SDS011;63021;52.836;6.376;2023-04-15T10:21:49;8.75;;;3.13;;
55455;SDS011;63021;52.836;6.376;2023-04-15T10:24:25;3.80;;;2.65;;
55455;SDS011;63021;52.836;6.376;2023-04-15T10:27:05;11.40;;;3.83;;
55455;SDS011;63021;52.836;6.376;2023-04-15T10:32:06;4.50;;;2.80;;
55455;SDS011;63021;52.836;6.376;2023-04-15T10:34:36;5.60;;;3.10;;
55455;SDS011;63021;52.836;6.376;2023-04-15T10:37:02;7.00;;;2.20;;
55455;SDS011;63021;52.836;6.376;2023-04-15T10:42:07;4.65;;;2.10;;
55455;SDS011;63021;52.836;6.376;2023-04-15T10:44:41;5.30;;;1.90;;
55455;SDS011;63021;52.836;6.376;2023-04-15T10:47:25;3.45;;;1.92;;
55455;SDS011;63021;52.836;6.376;2023-04-15T10:49:57;3.25;;;1.73;;
55455;SDS011;63021;52.836;6.376;2023-04-15T10:52:25;3.50;;;1.50;;
55455;SDS011;63021;52.836;6.376;2023-04-15T10:55:11;3.15;;;1.90;;
55455;SDS011;63021;52.836;6.376;2023-04-15T10:58:07;3.05;;;2.00;;
55455;SDS011;63021;52.836;6.376;2023-04-15T11:00:37;3.28;;;1.98;;
55455;SDS011;63021;52.836;6.376;2023-04-15T11:03:08;3.08;;;1.52;;
55455;SDS011;63021;52.836;6.376;2023-04-15T11:08:06;2.85;;;1.95;;
55455;SDS011;63021;52.836;6.376;2023-04-15T11:13:04;1.50;;;1.40;;
55455;SDS011;63021;52.836;6.376;2023-04-15T11:15:41;1.95;;;1.75;;
55455;SDS011;63021;52.836;6.376;2023-04-15T11:18:20;1.95;;;1.40;;
55455;SDS011;63021;52.836;6.376;2023-04-15T11:20:51;4.00;;;2.00;;
55455;SDS011;63021;52.836;6.376;2023-04-15T11:25:57;5.95;;;2.08;;
55455;SDS011;63021;52.836;6.376;2023-04-15T11:28:33;2.58;;;1.88;;
55455;SDS011;63021;52.836;6.376;2023-04-15T11:31:15;1.98;;;1.83;;
55455;SDS011;63021;52.836;6.376;2023-04-15T11:33:54;3.88;;;2.22;;
55455;SDS011;63021;52.836;6.376;2023-04-15T11:36:30;6.65;;;2.75;;
55455;SDS011;63021;52.836;6.376;2023-04-15T11:39:16;2.73;;;1.70;;
55455;SDS011;63021;52.836;6.376;2023-04-15T11:41:59;1.80;;;1.70;;
55455;SDS011;63021;52.836;6.376;2023-04-15T11:44:27;1.92;;;1.70;;
55455;SDS011;63021;52.836;6.376;2023-04-15T11:46:53;6.50;;;2.58;;
55455;SDS011;63021;52.836;6.376;2023-04-15T11:49:29;3.10;;;1.90;;
55455;SDS011;63021;52.836;6.376;2023-04-15T11:51:57;1.98;;;1.75;;
55455;SDS011;63021;52.836;6.376;2023-04-15T11:54:27;5.95;;;2.00;;
55455;SDS011;63021;52.836;6.376;2023-04-15T11:56:53;2.65;;;1.90;;
55455;SDS011;63021;52.836;6.376;2023-04-15T11:59:19;3.50;;;1.92;;
55455;SDS011;63021;52.836;6.376;2023-04-15T12:01:45;4.75;;;1.83;;
55455;SDS011;63021;52.836;6.376;2023-04-15T12:04:16;5.10;;;2.10;;
55455;SDS011;63021;52.836;6.376;2023-04-15T12:06:47;2.50;;;1.73;;
55455;SDS011;63021;52.836;6.376;2023-04-15T12:09:13;4.20;;;2.10;;
55455;SDS011;63021;52.836;6.376;2023-04-15T12:11:47;5.80;;;2.05;;
55455;SDS011;63021;52.836;6.376;2023-04-15T12:16:43;4.03;;;2.10;;
55455;SDS011;63021;52.836;6.376;2023-04-15T12:19:12;4.18;;;2.75;;
55455;SDS011;63021;52.836;6.376;2023-04-15T12:21:46;6.45;;;1.92;;
55455;SDS011;63021;52.836;6.376;2023-04-15T12:24:15;3.65;;;2.03;;
55455;SDS011;63021;52.836;6.376;2023-04-15T12:26:51;3.90;;;1.85;;
55455;SDS011;63021;52.836;6.376;2023-04-15T12:29:18;2.75;;;1.60;;
55455;SDS011;63021;52.836;6.376;2023-04-15T12:31:45;1.55;;;1.33;;
55455;SDS011;63021;52.836;6.376;2023-04-15T12:34:18;7.32;;;1.80;;
55455;SDS011;63021;52.836;6.376;2023-04-15T12:37:00;7.68;;;3.15;;
55455;SDS011;63021;52.836;6.376;2023-04-15T12:39:33;5.30;;;1.65;;
55455;SDS011;63021;52.836;6.376;2023-04-15T12:42:03;16.00;;;2.28;;
55455;SDS011;63021;52.836;6.376;2023-04-15T12:44:36;7.70;;;2.25;;
55455;SDS011;63021;52.836;6.376;2023-04-15T12:47:10;3.03;;;2.22;;
55455;SDS011;63021;52.836;6.376;2023-04-15T12:49:42;6.00;;;1.90;;
55455;SDS011;63021;52.836;6.376;2023-04-15T12:52:23;4.82;;;1.70;;
55455;SDS011;63021;52.836;6.376;2023-04-15T12:54:51;2.20;;;2.00;;
55455;SDS011;63021;52.836;6.376;2023-04-15T12:57:23;4.63;;;2.17;;
55455;SDS011;63021;52.836;6.376;2023-04-15T13:02:53;6.00;;;2.08;;
55455;SDS011;63021;52.836;6.376;2023-04-15T13:05:21;5.75;;;2.00;;
55455;SDS011;63021;52.836;6.376;2023-04-15T13:07:49;8.10;;;2.20;;
55455;SDS011;63021;52.836;6.376;2023-04-15T13:10:17;5.95;;;1.73;;
55455;SDS011;63021;52.836;6.376;2023-04-15T13:12:51;8.88;;;2.30;;
55455;SDS011;63021;52.836;6.376;2023-04-15T13:15:20;6.93;;;2.00;;
55455;SDS011;63021;52.836;6.376;2023-04-15T13:17:46;13.27;;;2.33;;
55455;SDS011;63021;52.836;6.376;2023-04-15T13:20:12;6.15;;;2.22;;
55455;SDS011;63021;52.836;6.376;2023-04-15T13:22:38;8.98;;;2.45;;
55455;SDS011;63021;52.836;6.376;2023-04-15T13:25:04;5.10;;;1.85;;
55455;SDS011;63021;52.836;6.376;2023-04-15T13:27:30;8.13;;;2.03;;
55455;SDS011;63021;52.836;6.376;2023-04-15T13:29:55;7.07;;;2.05;;
55455;SDS011;63021;52.836;6.376;2023-04-15T13:32:23;4.68;;;1.85;;
55455;SDS011;63021;52.836;6.376;2023-04-15T13:34:49;5.65;;;1.63;;
55455;SDS011;63021;52.836;6.376;2023-04-15T13:37:17;8.15;;;1.63;;
55455;SDS011;63021;52.836;6.376;2023-04-15T13:39:51;6.63;;;1.75;;
55455;SDS011;63021;52.836;6.376;2023-04-15T13:42:17;4.28;;;1.55;;
55455;SDS011;63021;52.836;6.376;2023-04-15T13:44:48;6.60;;;1.58;;
55455;SDS011;63021;52.836;6.376;2023-04-15T13:47:22;7.78;;;2.50;;
55455;SDS011;63021;52.836;6.376;2023-04-15T13:49:52;7.57;;;1.90;;
55455;SDS011;63021;52.836;6.376;2023-04-15T13:52:23;5.47;;;1.80;;
55455;SDS011;63021;52.836;6.376;2023-04-15T13:54:49;13.90;;;1.95;;
55455;SDS011;63021;52.836;6.376;2023-04-15T13:57:17;9.00;;;2.38;;
55455;SDS011;63021;52.836;6.376;2023-04-15T13:59:43;6.53;;;2.55;;
55455;SDS011;63021;52.836;6.376;2023-04-15T14:02:09;5.05;;;1.73;;
55455;SDS011;63021;52.836;6.376;2023-04-15T14:04:34;9.60;;;2.00;;
55455;SDS011;63021;52.836;6.376;2023-04-15T14:07:00;9.63;;;1.73;;
55455;SDS011;63021;52.836;6.376;2023-04-15T14:09:26;5.60;;;1.42;;
55455;SDS011;63021;52.836;6.376;2023-04-15T14:11:52;6.47;;;1.52;;
55455;SDS011;63021;52.836;6.376;2023-04-15T14:14:17;8.40;;;2.72;;
55455;SDS011;63021;52.836;6.376;2023-04-15T14:16:43;6.57;;;2.40;;
55455;SDS011;63021;52.836;6.376;2023-04-15T14:19:08;9.65;;;2.40;;
55455;SDS011;63021;52.836;6.376;2023-04-15T14:21:34;11.63;;;1.90;;
55455;SDS011;63021;52.836;6.376;2023-04-15T14:24:02;7.55;;;1.67;;
55455;SDS011;63021;52.836;6.376;2023-04-15T14:26:28;10.45;;;2.17;;
55455;SDS011;63021;52.836;6.376;2023-04-15T14:28:54;4.78;;;1.63;;
55455;SDS011;63021;52.836;6.376;2023-04-15T14:31:22;9.77;;;2.28;;
55455;SDS011;63021;52.836;6.376;2023-04-15T14:33:47;13.70;;;2.20;;
55455;SDS011;63021;52.836;6.376;2023-04-15T14:36:13;4.60;;;1.52;;
55455;SDS011;63021;52.836;6.376;2023-04-15T14:38:41;10.35;;;1.73;;
55455;SDS011;63021;52.836;6.376;2023-04-15T14:41:06;5.50;;;1.98;;
55455;SDS011;63021;52.836;6.376;2023-04-15T14:43:33;11.65;;;2.28;;
55455;SDS011;63021;52.836;6.376;2023-04-15T14:46:01;10.40;;;1.90;;
55455;SDS011;63021;52.836;6.376;2023-04-15T14:48:27;9.80;;;1.98;;
55455;SDS011;63021;52.836;6.376;2023-04-15T14:50:55;15.43;;;3.92;;
55455;SDS011;63021;52.836;6.376;2023-04-15T14:53:27;5.20;;;1.95;;
55455;SDS011;63021;52.836;6.376;2023-04-15T14:55:56;8.00;;;2.00;;
55455;SDS011;63021;52.836;6.376;2023-04-15T14:58:24;9.30;;;1.70;;
55455;SDS011;63021;52.836;6.376;2023-04-15T15:00:50;7.57;;;2.25;;
55455;SDS011;63021;52.836;6.376;2023-04-15T15:03:16;7.50;;;2.47;;
55455;SDS011;63021;52.836;6.376;2023-04-15T15:05:45;2.80;;;1.35;;
55455;SDS011;63021;52.836;6.376;2023-04-15T15:08:11;8.13;;;1.85;;
55455;SDS011;63021;52.836;6.376;2023-04-15T15:10:38;13.10;;;1.85;;
55455;SDS011;63021;52.836;6.376;2023-04-15T15:13:05;5.78;;;1.70;;
55455;SDS011;63021;52.836;6.376;2023-04-15T15:15:35;4.00;;;1.70;;
55455;SDS011;63021;52.836;6.376;2023-04-15T15:18:02;9.15;;;1.50;;
55455;SDS011;63021;52.836;6.376;2023-04-15T15:20:27;4.97;;;1.83;;
55455;SDS011;63021;52.836;6.376;2023-04-15T15:22:53;8.00;;;2.45;;
55455;SDS011;63021;52.836;6.376;2023-04-15T15:25:24;9.40;;;1.80;;